Hauptseite
METAR-TAF:

METAR-TAF

Flughäfen :

RAF Benson

Benson, England

Breite: 51-37N, Länge: 001-05W, Höhe: 63 m

Beobachtung

Neuester Wetterbericht von vor 1 Stunde und 7 Minuten, um 08:50 UTC
Wind 2 kt aus Südwest
Temperatur 19°C
Luftfeuchtigkeit 56%
Luftdruck 1036 hPa
Sichtweite 10 km oder mehr

METAR: EGUB 270850Z AUTO 23002KT 9999 // BKN047/// 19/10 Q1036

Zeit: 10:57 (09:57 UTC)

Prognose

Neuester Wetterbericht von vor 10 Stunden und 41 Minuten, um 23:16 UTC
Gültige Prognose vom 27 um 00 UTC bis 27 um 03 UTC
Wind 3 kt aus Nord/Nordwest
Sichtweite 10 km oder mehr
keine Wolken unter 1500 m und keine Kumulonimbus oder Gewitterwolken

TAF: EGUB 262316Z 2700/2703 34003KT CAVOK

Wetterbeobachtungen und Prognosen von mehr als 4000 Flughäfen (METAR und TAF Bericht).

Die verfügbaren Stationen werden durch gelbe und rote Markierungen auf der Karte dargestellt.

Führen Sie die Maus auf sie, um den Namen der Station zu sehen.

Darauf klicken, um die Beobachtung von Wetterbeobachtungen und Prognosen zu sehen.

Um die Karte zu ändern : klicken Sie auf den grünen Tasten mit einem schwarzen Kreuz Zum Vergrößern, auf den grünen Button mit einem Gedankenstrich zu verkleinern, oder auf die grünen Pfeile für benachbarte Karten.


METAR-TAF: